createdAt,value
2023-05-16T00:02:11.415Z,7.22
2023-05-16T00:04:38.948Z,7.28
2023-05-16T00:07:06.062Z,6.10
2023-05-16T00:09:33.017Z,6.68
2023-05-16T00:12:00.143Z,6.50
2023-05-16T00:14:27.330Z,4.57
2023-05-16T00:16:55.037Z,5.35
2023-05-16T00:19:22.183Z,5.85
2023-05-16T00:21:49.323Z,7.35
2023-05-16T00:24:16.894Z,5.55
2023-05-16T00:26:43.982Z,5.13
2023-05-16T00:29:10.987Z,6.88
2023-05-16T00:31:37.944Z,8.68
2023-05-16T00:34:05.125Z,6.75
2023-05-16T00:36:32.458Z,6.35
2023-05-16T00:38:59.397Z,5.90
2023-05-16T00:41:27.861Z,5.50
2023-05-16T00:43:54.990Z,5.70
2023-05-16T00:46:22.000Z,5.18
2023-05-16T00:48:49.066Z,5.20
2023-05-16T00:51:17.444Z,5.63
2023-05-16T00:53:44.733Z,5.13
2023-05-16T00:56:12.004Z,6.20
2023-05-16T00:58:39.143Z,7.65
2023-05-16T01:01:06.373Z,5.15
2023-05-16T01:03:34.510Z,5.70
2023-05-16T01:06:01.672Z,5.30
2023-05-16T01:08:28.883Z,5.38
2023-05-16T01:11:10.919Z,6.35
2023-05-16T01:16:43.017Z,5.00
2023-05-16T01:19:39.728Z,5.70
2023-05-16T01:22:46.127Z,4.78
2023-05-16T01:25:58.387Z,9.27
2023-05-16T01:28:26.679Z,5.20
2023-05-16T01:30:53.899Z,4.40
2023-05-16T01:33:20.857Z,8.95
2023-05-16T01:36:02.564Z,5.95
2023-05-16T01:39:08.149Z,5.97
2023-05-16T01:42:04.203Z,4.88
2023-05-16T01:44:50.939Z,4.53
2023-05-16T01:47:21.313Z,5.20
2023-05-16T01:50:14.734Z,12.25
2023-05-16T01:53:28.435Z,6.32
2023-05-16T01:56:01.858Z,4.22
2023-05-16T01:58:33.630Z,4.03
2023-05-16T02:01:03.892Z,4.55
2023-05-16T02:03:32.242Z,6.43
2023-05-16T02:05:59.653Z,6.88
2023-05-16T02:08:28.689Z,4.25
2023-05-16T02:10:55.643Z,5.25
2023-05-16T02:13:22.674Z,6.13
2023-05-16T02:15:49.676Z,5.63
2023-05-16T02:18:17.312Z,5.60
2023-05-16T02:20:44.429Z,8.65
2023-05-16T02:23:11.697Z,5.55
2023-05-16T02:25:38.697Z,8.90
2023-05-16T02:28:05.641Z,6.35
2023-05-16T02:30:33.127Z,5.80
2023-05-16T02:33:00.271Z,7.63
2023-05-16T02:35:27.579Z,5.78
2023-05-16T02:37:55.826Z,5.88
2023-05-16T02:40:24.919Z,5.53
2023-05-16T02:42:51.976Z,8.82
2023-05-16T02:45:18.997Z,5.43
2023-05-16T02:47:46.102Z,8.93
2023-05-16T02:50:13.585Z,6.22
2023-05-16T02:52:40.993Z,6.55
2023-05-16T02:57:38.547Z,7.18
2023-05-16T03:00:06.579Z,8.15
2023-05-16T03:02:33.796Z,6.18
2023-05-16T03:05:01.148Z,12.77
2023-05-16T03:07:28.091Z,6.43
2023-05-16T03:09:55.132Z,5.72
2023-05-16T03:12:22.131Z,7.00
2023-05-16T03:14:49.162Z,5.75
2023-05-16T03:17:16.123Z,8.90
2023-05-16T03:19:43.100Z,6.47
2023-05-16T03:22:10.062Z,11.52
2023-05-16T03:24:37.046Z,5.78
2023-05-16T03:27:04.830Z,8.48
2023-05-16T03:29:31.825Z,6.15
2023-05-16T03:31:59.075Z,7.53
2023-05-16T03:34:26.339Z,5.72
2023-05-16T03:36:53.505Z,7.13
2023-05-16T03:39:20.974Z,9.13
2023-05-16T03:41:48.481Z,6.50
2023-05-16T03:44:15.595Z,7.30
2023-05-16T03:46:42.628Z,7.72
2023-05-16T03:49:10.060Z,8.38
2023-05-16T03:51:37.364Z,7.80
2023-05-16T03:54:04.581Z,7.20
2023-05-16T03:56:31.606Z,6.60
2023-05-16T03:58:58.576Z,7.70
2023-05-16T04:01:25.700Z,7.22
2023-05-16T04:03:52.675Z,7.68
2023-05-16T04:06:38.423Z,8.27
2023-05-16T04:09:06.576Z,11.57
2023-05-16T04:11:34.398Z,11.77
2023-05-16T04:14:01.873Z,8.45
2023-05-16T04:16:29.225Z,8.18
2023-05-16T04:18:56.886Z,7.82
2023-05-16T04:21:23.879Z,9.93
2023-05-16T04:23:50.824Z,10.65
2023-05-16T04:26:18.274Z,11.02
2023-05-16T04:28:45.893Z,10.38
2023-05-16T04:31:14.340Z,12.15
2023-05-16T04:33:41.674Z,10.23
2023-05-16T04:36:09.201Z,10.40
2023-05-16T04:38:36.197Z,9.90
2023-05-16T04:41:03.827Z,11.82
2023-05-16T04:43:30.924Z,9.35
2023-05-16T04:45:58.967Z,11.32
2023-05-16T04:48:26.025Z,9.73
2023-05-16T04:50:53.411Z,9.68
2023-05-16T04:53:20.439Z,11.63
2023-05-16T04:55:47.488Z,11.52
2023-05-16T04:58:14.452Z,9.73
2023-05-16T05:00:42.538Z,10.95
2023-05-16T05:03:09.754Z,9.32
2023-05-16T05:05:37.169Z,12.77
2023-05-16T05:08:04.525Z,7.07
2023-05-16T05:10:31.718Z,9.80
2023-05-16T05:12:58.804Z,8.82
2023-05-16T05:15:26.177Z,11.20
2023-05-16T05:17:53.591Z,13.82
2023-05-16T05:20:20.928Z,11.90
2023-05-16T05:22:48.059Z,10.68
2023-05-16T05:25:15.413Z,14.38
2023-05-16T05:27:42.461Z,13.77
2023-05-16T05:30:10.105Z,16.63
2023-05-16T05:32:37.356Z,15.82
2023-05-16T05:35:04.934Z,14.90
2023-05-16T05:37:32.267Z,16.98
2023-05-16T05:39:59.432Z,16.00
2023-05-16T05:42:26.350Z,14.90
2023-05-16T05:44:53.364Z,15.10
2023-05-16T05:47:20.570Z,14.98
2023-05-16T05:49:48.378Z,14.77
2023-05-16T05:52:15.353Z,16.20
2023-05-16T05:54:42.321Z,19.50
2023-05-16T05:57:09.259Z,17.73
2023-05-16T05:59:36.317Z,20.42
2023-05-16T06:02:03.493Z,22.98
2023-05-16T06:04:30.532Z,18.45
2023-05-16T06:06:57.523Z,23.42
2023-05-16T06:09:24.568Z,25.73
2023-05-16T06:11:51.776Z,19.05
2023-05-16T06:14:20.578Z,24.35
2023-05-16T06:16:47.557Z,28.55
2023-05-16T06:19:16.286Z,27.13
2023-05-16T06:21:44.946Z,23.92
2023-05-16T06:24:12.497Z,22.50
2023-05-16T06:26:39.842Z,27.90
2023-05-16T06:29:07.279Z,24.67
2023-05-16T06:31:34.558Z,20.55
2023-05-16T06:34:02.407Z,22.58
2023-05-16T06:36:29.369Z,19.10
2023-05-16T06:38:56.790Z,36.03
2023-05-16T06:41:23.744Z,33.78
2023-05-16T06:43:51.946Z,20.60
2023-05-16T06:46:19.020Z,25.88
2023-05-16T06:48:46.210Z,18.77
2023-05-16T06:51:13.391Z,19.42
2023-05-16T06:53:40.667Z,16.90
2023-05-16T06:56:08.071Z,16.42
2023-05-16T06:58:35.163Z,15.93
2023-05-16T07:01:02.164Z,17.67
2023-05-16T07:03:29.911Z,18.13
2023-05-16T07:05:57.280Z,15.25
2023-05-16T07:08:26.236Z,14.55
2023-05-16T07:10:53.282Z,14.95
2023-05-16T07:13:20.785Z,19.67
2023-05-16T07:15:47.728Z,16.75
2023-05-16T07:18:14.830Z,15.18
2023-05-16T07:20:41.856Z,22.55
2023-05-16T07:23:09.037Z,14.80
2023-05-16T07:25:36.757Z,13.80
2023-05-16T07:28:04.002Z,19.60
2023-05-16T07:30:31.625Z,24.23
2023-05-16T07:32:59.222Z,8.82
2023-05-16T07:35:26.507Z,13.45
2023-05-16T07:37:53.795Z,13.95
2023-05-16T07:40:26.021Z,15.40
2023-05-16T07:42:53.256Z,13.90
2023-05-16T07:45:20.859Z,10.23
2023-05-16T07:47:47.960Z,13.38
2023-05-16T07:50:15.271Z,10.43
2023-05-16T07:52:42.323Z,4.82
2023-05-16T07:55:09.722Z,16.50
2023-05-16T07:57:36.855Z,12.82
2023-05-16T08:00:04.364Z,12.27
2023-05-16T08:02:39.446Z,14.52
2023-05-16T08:05:07.614Z,13.43
2023-05-16T08:07:34.749Z,15.13
2023-05-16T08:10:01.749Z,18.65
2023-05-16T08:12:28.933Z,13.95
2023-05-16T08:14:55.978Z,10.93
2023-05-16T08:17:23.164Z,13.13
2023-05-16T08:19:50.241Z,9.77
2023-05-16T08:22:17.518Z,16.00
2023-05-16T08:24:44.945Z,19.30
2023-05-16T08:27:12.503Z,13.15
2023-05-16T08:29:39.990Z,16.05
2023-05-16T08:32:09.294Z,15.82
2023-05-16T08:34:37.261Z,13.13
2023-05-16T08:37:04.733Z,6.95
2023-05-16T08:39:31.808Z,15.07
2023-05-16T08:41:59.011Z,14.48
2023-05-16T08:44:26.543Z,5.82
2023-05-16T08:46:55.149Z,15.45
2023-05-16T08:49:23.055Z,7.60
2023-05-16T08:51:52.370Z,5.22
2023-05-16T08:54:19.414Z,3.65
2023-05-16T08:56:48.334Z,5.22
2023-05-16T08:59:16.173Z,8.82
2023-05-16T09:01:43.937Z,14.45
2023-05-16T09:04:11.535Z,9.48
2023-05-16T09:06:38.603Z,18.92
2023-05-16T09:09:09.447Z,20.90
2023-05-16T09:11:37.231Z,16.58
2023-05-16T09:14:05.667Z,14.32
2023-05-16T09:16:32.804Z,47.00
2023-05-16T09:19:01.975Z,14.63
2023-05-16T09:21:34.819Z,1.60
2023-05-16T09:24:07.157Z,11.27
2023-05-16T09:26:36.440Z,14.85
2023-05-16T09:29:14.116Z,14.70
2023-05-16T09:31:41.336Z,14.60
2023-05-16T09:34:11.394Z,12.57
2023-05-16T09:36:39.651Z,11.75
2023-05-16T09:39:08.121Z,18.08
2023-05-16T09:41:36.554Z,10.98
2023-05-16T09:44:07.295Z,14.23
2023-05-16T09:46:44.649Z,17.33
2023-05-16T09:49:14.876Z,9.02
2023-05-16T09:51:42.175Z,12.77
2023-05-16T09:54:09.962Z,14.63
2023-05-16T09:56:50.263Z,15.20
2023-05-16T09:59:17.659Z,15.38
2023-05-16T10:01:45.105Z,14.00
2023-05-16T10:04:16.379Z,4.47
2023-05-16T10:06:45.040Z,3.72
2023-05-16T10:09:13.410Z,14.93
2023-05-16T10:11:43.540Z,23.15
2023-05-16T10:14:11.986Z,19.23
2023-05-16T10:16:44.641Z,15.25
2023-05-16T10:19:12.399Z,4.50
2023-05-16T10:21:45.965Z,16.73
2023-05-16T10:24:18.439Z,13.60
2023-05-16T10:26:45.674Z,10.70
2023-05-16T10:29:12.919Z,21.02
2023-05-16T10:31:40.610Z,13.50
2023-05-16T10:34:07.959Z,8.43
2023-05-16T10:36:35.190Z,21.88
2023-05-16T10:39:04.058Z,12.20
2023-05-16T10:41:33.653Z,29.98
2023-05-16T10:44:02.498Z,7.13
2023-05-16T10:46:30.541Z,15.95
2023-05-16T10:48:58.907Z,8.57
2023-05-16T10:51:39.108Z,19.67
2023-05-16T10:54:11.592Z,15.70
2023-05-16T10:56:39.338Z,12.15
2023-05-16T10:59:28.556Z,7.15
2023-05-16T11:01:57.035Z,27.08
2023-05-16T11:04:24.376Z,16.80
2023-05-16T11:06:53.492Z,21.92
2023-05-16T11:09:24.021Z,5.28
2023-05-16T11:12:06.452Z,18.80
2023-05-16T11:14:33.584Z,6.50
2023-05-16T11:17:24.126Z,11.38
2023-05-16T11:20:01.402Z,2.92
2023-05-16T11:22:34.280Z,9.52
2023-05-16T11:25:06.015Z,4.18
2023-05-16T11:27:45.840Z,10.73
2023-05-16T11:30:16.397Z,8.63
2023-05-16T11:32:46.981Z,7.47
2023-05-16T11:35:18.578Z,16.55
2023-05-16T11:37:47.223Z,7.50
2023-05-16T11:40:16.768Z,20.52
2023-05-16T11:42:48.497Z,16.17
2023-05-16T11:45:18.735Z,20.58
2023-05-16T11:47:50.424Z,16.15
2023-05-16T11:50:20.667Z,14.73
2023-05-16T11:52:53.733Z,19.10
2023-05-16T11:55:36.922Z,12.07
2023-05-16T11:58:08.897Z,12.82
2023-05-16T12:00:36.110Z,4.60
2023-05-16T12:03:05.763Z,12.27
2023-05-16T12:05:35.125Z,4.80
2023-05-16T12:08:05.588Z,14.00
2023-05-16T12:10:34.785Z,15.45
2023-05-16T12:13:02.639Z,11.00
2023-05-16T12:15:30.265Z,10.13
2023-05-16T12:17:57.864Z,17.65
2023-05-16T12:20:26.222Z,16.23
2023-05-16T12:22:53.461Z,15.88
2023-05-16T12:25:26.791Z,9.20
2023-05-16T12:27:56.204Z,7.00
2023-05-16T12:30:25.313Z,9.93
2023-05-16T12:33:00.943Z,12.02
2023-05-16T12:35:33.884Z,14.27
2023-05-16T12:38:09.253Z,14.88
2023-05-16T12:40:42.349Z,11.30
2023-05-16T12:43:18.111Z,12.25
2023-05-16T12:45:58.753Z,5.18
2023-05-16T12:48:34.665Z,6.80
2023-05-16T12:51:18.954Z,5.13
2023-05-16T12:54:01.638Z,13.18
2023-05-16T12:56:41.878Z,2.13
2023-05-16T12:59:09.490Z,1.10
2023-05-16T13:01:37.111Z,9.65
2023-05-16T13:04:05.295Z,3.47
2023-05-16T13:06:44.913Z,4.45
2023-05-16T13:09:19.744Z,5.40
2023-05-16T13:11:46.709Z,7.22
2023-05-16T13:14:13.799Z,6.28
2023-05-16T13:16:40.864Z,1.98
2023-05-16T13:19:08.009Z,4.95
2023-05-16T13:21:35.609Z,2.55
2023-05-16T13:24:02.608Z,2.03
2023-05-16T13:26:30.350Z,2.03
2023-05-16T13:28:57.330Z,3.85
2023-05-16T13:31:24.400Z,3.42
2023-05-16T13:33:52.249Z,2.22
2023-05-16T13:36:19.288Z,2.70
2023-05-16T13:38:46.524Z,3.25
2023-05-16T13:41:14.177Z,6.97
2023-05-16T13:43:41.335Z,0.73
2023-05-16T13:46:08.654Z,4.80
2023-05-16T13:48:36.202Z,5.10
2023-05-16T13:51:03.289Z,1.00
2023-05-16T13:53:30.304Z,1.88
2023-05-16T13:55:57.470Z,1.65
2023-05-16T13:58:24.643Z,4.05
2023-05-16T14:00:51.933Z,0.45
2023-05-16T14:03:20.536Z,2.03
2023-05-16T14:05:49.700Z,1.50
2023-05-16T14:08:16.702Z,1.10
2023-05-16T14:10:43.817Z,2.20
2023-05-16T14:13:10.988Z,0.95
2023-05-16T14:15:38.046Z,1.55
2023-05-16T14:18:05.409Z,2.83
2023-05-16T14:20:32.435Z,1.17
2023-05-16T14:22:59.463Z,1.92
2023-05-16T14:25:26.955Z,1.92
2023-05-16T14:27:54.288Z,1.45
2023-05-16T14:30:21.579Z,2.17
2023-05-16T14:32:48.624Z,2.08
2023-05-16T14:35:16.127Z,12.07
2023-05-16T14:37:43.120Z,7.63
2023-05-16T14:40:10.885Z,5.43
2023-05-16T14:42:39.871Z,4.47
2023-05-16T14:45:07.630Z,6.88
2023-05-16T14:47:34.797Z,2.10
2023-05-16T14:50:02.080Z,4.03
2023-05-16T14:52:29.066Z,4.85
2023-05-16T14:54:56.223Z,1.90
2023-05-16T14:57:23.239Z,2.85
2023-05-16T14:59:50.576Z,2.70
2023-05-16T15:02:17.628Z,1.10
2023-05-16T15:04:44.736Z,1.75
2023-05-16T15:07:11.819Z,3.90
2023-05-16T15:09:38.794Z,2.50
2023-05-16T15:12:06.541Z,2.72
2023-05-16T15:14:33.667Z,0.55
2023-05-16T15:17:00.829Z,2.75
2023-05-16T15:19:27.983Z,1.50
2023-05-16T15:21:55.227Z,4.82
2023-05-16T15:24:25.495Z,3.35
2023-05-16T15:26:52.952Z,4.70
2023-05-16T15:29:20.840Z,5.18
2023-05-16T15:31:47.901Z,2.35
2023-05-16T15:34:15.127Z,2.47
2023-05-16T15:36:42.392Z,2.35
2023-05-16T15:39:09.444Z,2.00
2023-05-16T15:42:00.587Z,7.25
2023-05-16T15:44:24.112Z,3.05
2023-05-16T15:46:51.328Z,2.90
2023-05-16T15:49:19.907Z,5.57
2023-05-16T15:51:47.798Z,3.53
2023-05-16T15:54:14.960Z,4.47
2023-05-16T15:56:41.939Z,2.55
2023-05-16T15:59:08.975Z,2.20
2023-05-16T16:01:36.413Z,3.95
2023-05-16T16:04:03.501Z,10.85
2023-05-16T16:06:31.534Z,2.88
2023-05-16T16:08:58.604Z,1.77
2023-05-16T16:11:27.276Z,2.97
2023-05-16T16:13:54.458Z,3.42
2023-05-16T16:16:21.701Z,1.50
2023-05-16T16:18:49.657Z,4.10
2023-05-16T16:21:16.754Z,4.22
2023-05-16T16:23:43.707Z,3.13
2023-05-16T16:26:10.717Z,10.85
2023-05-16T16:28:37.742Z,6.00
2023-05-16T16:31:04.961Z,5.28
2023-05-16T16:33:32.396Z,4.03
2023-05-16T16:35:59.477Z,2.35
2023-05-16T16:38:26.700Z,3.05
2023-05-16T16:40:53.736Z,5.00
2023-05-16T16:43:20.938Z,9.02
2023-05-16T16:45:48.303Z,3.97
2023-05-16T16:48:15.336Z,4.07
2023-05-16T16:50:43.292Z,5.30
2023-05-16T16:53:11.420Z,6.93
2023-05-16T16:55:40.741Z,5.93
2023-05-16T16:58:08.079Z,4.13
2023-05-16T17:00:35.233Z,3.03
2023-05-16T17:03:04.798Z,5.60
2023-05-16T17:05:32.095Z,3.47
2023-05-16T17:07:59.351Z,5.43
2023-05-16T17:10:26.438Z,6.35
2023-05-16T17:12:54.614Z,3.25
2023-05-16T17:15:22.012Z,4.00
2023-05-16T17:17:49.672Z,6.28
2023-05-16T17:20:17.113Z,10.30
2023-05-16T17:22:44.821Z,4.75
2023-05-16T17:25:12.335Z,6.88
2023-05-16T17:27:41.716Z,3.80
2023-05-16T17:30:10.735Z,6.10
2023-05-16T17:32:37.875Z,4.53
2023-05-16T17:35:06.094Z,9.35
2023-05-16T17:37:33.323Z,4.00
2023-05-16T17:40:00.549Z,3.25
2023-05-16T17:42:27.890Z,6.57
2023-05-16T17:44:54.913Z,4.15
2023-05-16T17:47:22.231Z,4.95
2023-05-16T17:49:49.723Z,3.95
2023-05-16T17:52:16.916Z,4.60
2023-05-16T17:54:44.162Z,6.60
2023-05-16T17:57:11.244Z,4.32
2023-05-16T17:59:38.536Z,2.13
2023-05-16T18:02:10.153Z,2.97
2023-05-16T18:04:37.896Z,5.40
2023-05-16T18:07:05.622Z,3.65
2023-05-16T18:09:32.921Z,7.55
2023-05-16T18:12:01.299Z,5.32
2023-05-16T18:14:28.377Z,4.38
2023-05-16T18:16:55.369Z,3.65
2023-05-16T18:19:22.547Z,4.32
2023-05-16T18:21:49.845Z,4.28
2023-05-16T18:24:16.948Z,4.55
2023-05-16T18:26:46.593Z,4.57
2023-05-16T18:29:13.956Z,4.55
2023-05-16T18:31:42.551Z,3.90
2023-05-16T18:34:10.398Z,4.45
2023-05-16T18:36:37.458Z,9.95
2023-05-16T18:39:04.430Z,3.47
2023-05-16T18:41:31.571Z,1.63
2023-05-16T18:43:59.051Z,4.60
2023-05-16T18:46:26.045Z,4.20
2023-05-16T18:48:57.556Z,1.95
2023-05-16T18:51:25.353Z,1.80
2023-05-16T18:53:52.747Z,2.15
2023-05-16T18:56:19.985Z,5.78
2023-05-16T18:58:47.210Z,5.65
2023-05-16T19:01:14.420Z,2.28
2023-05-16T19:03:41.624Z,3.22
2023-05-16T19:06:08.875Z,2.35
2023-05-16T19:08:46.976Z,7.43
2023-05-16T19:11:14.796Z,5.32
2023-05-16T19:13:41.966Z,9.32
2023-05-16T19:16:09.659Z,7.22
2023-05-16T19:18:37.231Z,3.10
2023-05-16T19:21:04.587Z,2.42
2023-05-16T19:23:31.875Z,3.67
2023-05-16T19:25:58.911Z,5.35
2023-05-16T19:28:26.005Z,3.58
2023-05-16T19:30:53.005Z,2.35
2023-05-16T19:33:21.381Z,4.70
2023-05-16T19:35:49.014Z,3.88
2023-05-16T19:38:18.207Z,5.78
2023-05-16T19:40:45.908Z,7.10
2023-05-16T19:43:13.174Z,2.58
2023-05-16T19:45:40.288Z,3.83
2023-05-16T19:48:08.789Z,2.95
2023-05-16T19:50:36.571Z,2.45
2023-05-16T19:53:04.347Z,3.17
2023-05-16T19:55:31.907Z,5.97
2023-05-16T19:57:59.082Z,6.32
2023-05-16T20:00:26.100Z,3.63
2023-05-16T20:02:53.207Z,5.85
2023-05-16T20:05:23.246Z,3.83
2023-05-16T20:07:53.472Z,4.03
2023-05-16T20:10:22.047Z,3.28
2023-05-16T20:12:49.452Z,2.42
2023-05-16T20:15:16.565Z,2.45
2023-05-16T20:17:44.304Z,4.25
2023-05-16T20:20:11.422Z,2.90
2023-05-16T20:22:39.429Z,4.15
2023-05-16T20:25:07.698Z,2.97
2023-05-16T20:27:35.508Z,2.83
2023-05-16T20:30:04.453Z,3.13
2023-05-16T20:32:31.628Z,1.77
2023-05-16T20:34:58.657Z,11.32
2023-05-16T20:37:26.665Z,3.08
2023-05-16T20:39:54.410Z,1.50
2023-05-16T20:42:21.837Z,2.42
2023-05-16T20:44:48.808Z,2.08
2023-05-16T20:47:17.105Z,1.27
2023-05-16T20:49:44.332Z,3.90
2023-05-16T20:52:11.624Z,5.65
2023-05-16T20:54:38.784Z,3.72
2023-05-16T20:57:07.389Z,1.33
2023-05-16T20:59:34.910Z,3.05
2023-05-16T21:02:01.966Z,4.30
2023-05-16T21:04:29.049Z,3.17
2023-05-16T21:06:56.240Z,4.05
2023-05-16T21:09:23.262Z,8.05
2023-05-16T21:11:50.302Z,6.05
2023-05-16T21:14:17.288Z,3.25
2023-05-16T21:16:44.733Z,5.63
2023-05-16T21:19:11.867Z,2.42
2023-05-16T21:21:41.478Z,3.25
2023-05-16T21:24:08.486Z,6.13
2023-05-16T21:26:35.476Z,1.38
2023-05-16T21:29:02.628Z,6.22
2023-05-16T21:31:29.911Z,3.95
2023-05-16T21:33:56.935Z,2.17
2023-05-16T21:36:24.632Z,5.43
2023-05-16T21:38:51.611Z,1.48
2023-05-16T21:41:19.691Z,1.05
2023-05-16T21:43:46.804Z,1.42
2023-05-16T21:46:14.073Z,3.17
2023-05-16T21:48:41.486Z,1.10
2023-05-16T21:51:08.660Z,6.00
2023-05-16T21:53:35.733Z,4.20
2023-05-16T21:56:02.702Z,1.83
2023-05-16T21:58:29.670Z,4.55
2023-05-16T22:00:56.711Z,2.75
2023-05-16T22:03:24.304Z,1.90
2023-05-16T22:05:51.494Z,2.38
2023-05-16T22:08:18.453Z,2.60
2023-05-16T22:10:45.834Z,4.18
2023-05-16T22:13:13.076Z,2.63
2023-05-16T22:15:42.472Z,2.95
2023-05-16T22:18:12.829Z,2.55
2023-05-16T22:20:39.991Z,2.47
2023-05-16T22:23:06.933Z,2.30
2023-05-16T22:25:33.890Z,0.75
2023-05-16T22:28:00.904Z,11.00
2023-05-16T22:30:28.071Z,2.05
2023-05-16T22:32:57.084Z,4.03
2023-05-16T22:35:25.400Z,2.45
2023-05-16T22:37:52.442Z,1.33
2023-05-16T22:40:22.384Z,3.20
2023-05-16T22:42:49.366Z,2.15
2023-05-16T22:45:16.323Z,3.58
2023-05-16T22:47:43.669Z,1.45
2023-05-16T22:50:11.332Z,10.27
2023-05-16T22:52:43.941Z,3.80
2023-05-16T22:55:11.651Z,1.75
2023-05-16T22:57:38.643Z,2.95
2023-05-16T23:00:07.756Z,3.42
2023-05-16T23:02:35.030Z,2.70
2023-05-16T23:05:02.549Z,3.47
2023-05-16T23:07:30.414Z,1.15
2023-05-16T23:09:57.567Z,2.05
2023-05-16T23:12:25.373Z,2.10
2023-05-16T23:14:52.540Z,4.75
2023-05-16T23:17:19.563Z,4.55
2023-05-16T23:19:46.759Z,4.22
2023-05-16T23:22:13.815Z,1.60
2023-05-16T23:24:40.889Z,1.75
2023-05-16T23:27:08.288Z,1.45
2023-05-16T23:29:35.286Z,2.22
2023-05-16T23:32:02.621Z,0.95
2023-05-16T23:34:29.831Z,1.67
2023-05-16T23:36:56.827Z,1.90
2023-05-16T23:39:23.873Z,2.15
2023-05-16T23:41:50.994Z,3.65
2023-05-16T23:44:18.012Z,0.75
2023-05-16T23:46:44.994Z,1.50
2023-05-16T23:49:12.025Z,1.58
2023-05-16T23:51:55.997Z,1.70
2023-05-16T23:54:24.082Z,3.83
2023-05-16T23:56:51.312Z,4.90
2023-05-16T23:59:21.456Z,1.80
